createdAt,value
2019-03-09T00:02:12.946Z,7.50
2019-03-09T00:04:42.623Z,7.50
2019-03-09T00:07:12.301Z,7.50
2019-03-09T00:09:42.274Z,7.50
2019-03-09T00:12:13.588Z,7.50
2019-03-09T00:14:43.281Z,7.60
2019-03-09T00:17:13.046Z,7.60
2019-03-09T00:19:42.746Z,7.60
2019-03-09T00:22:12.806Z,7.60
2019-03-09T00:24:47.990Z,7.70
2019-03-09T00:27:42.915Z,7.70
2019-03-09T00:30:34.793Z,7.70
2019-03-09T00:33:04.974Z,7.70
2019-03-09T00:35:34.662Z,7.70
2019-03-09T00:38:04.809Z,7.70
2019-03-09T00:40:34.486Z,7.80
2019-03-09T00:43:04.316Z,7.80
2019-03-09T00:45:34.088Z,7.80
2019-03-09T00:48:03.922Z,7.90
2019-03-09T00:50:35.077Z,7.90
2019-03-09T00:53:04.890Z,7.80
2019-03-09T00:55:34.659Z,7.90
2019-03-09T00:58:04.567Z,7.90
2019-03-09T01:00:34.269Z,7.90
2019-03-09T01:03:04.130Z,7.90
2019-03-09T01:05:33.817Z,7.90
2019-03-09T01:08:03.580Z,8.00
2019-03-09T01:10:33.354Z,8.00
2019-03-09T01:13:03.249Z,8.00
2019-03-09T01:15:33.018Z,8.00
2019-03-09T01:18:02.779Z,8.00
2019-03-09T01:20:32.548Z,8.00
2019-03-09T01:23:02.337Z,8.00
2019-03-09T01:25:32.083Z,8.00
2019-03-09T01:28:01.838Z,8.00
2019-03-09T01:30:31.690Z,8.00
2019-03-09T01:33:01.382Z,8.10
2019-03-09T01:35:31.148Z,8.20
2019-03-09T01:38:00.909Z,8.20
2019-03-09T01:40:30.662Z,8.20
2019-03-09T01:43:00.343Z,8.30
2019-03-09T01:45:30.183Z,8.20
2019-03-09T01:47:59.874Z,8.30
2019-03-09T01:50:29.569Z,8.30
2019-03-09T01:52:59.310Z,8.40
2019-03-09T01:55:29.067Z,8.40
2019-03-09T01:57:58.831Z,8.40
2019-03-09T02:00:28.529Z,8.50
2019-03-09T02:02:58.281Z,8.50
2019-03-09T02:05:28.113Z,8.50
2019-03-09T02:07:57.794Z,8.60
2019-03-09T02:10:27.629Z,8.60
2019-03-09T02:12:57.394Z,8.60
2019-03-09T02:15:27.112Z,8.60
2019-03-09T02:17:56.942Z,8.60
2019-03-09T02:20:26.974Z,8.60
2019-03-09T02:22:56.663Z,8.60
2019-03-09T02:25:26.447Z,8.60
2019-03-09T02:27:56.144Z,8.50
2019-03-09T02:30:25.831Z,8.50
2019-03-09T02:32:55.606Z,8.40
2019-03-09T02:35:25.355Z,8.40
2019-03-09T02:37:56.034Z,8.40
2019-03-09T02:40:26.341Z,8.40
2019-03-09T02:42:56.120Z,8.40
2019-03-09T02:45:27.032Z,8.50
2019-03-09T02:47:56.794Z,8.60
2019-03-09T02:50:26.475Z,8.60
2019-03-09T02:52:56.278Z,8.60
2019-03-09T02:55:25.972Z,8.60
2019-03-09T02:57:55.723Z,8.60
2019-03-09T03:00:27.059Z,8.60
2019-03-09T03:02:59.675Z,8.60
2019-03-09T03:05:29.509Z,8.50
2019-03-09T03:07:59.258Z,8.50
2019-03-09T03:10:28.997Z,8.40
2019-03-09T03:12:58.782Z,8.40
2019-03-09T03:15:33.423Z,8.40
2019-03-09T03:18:03.301Z,8.40
2019-03-09T03:20:33.119Z,8.40
2019-03-09T03:23:02.864Z,8.30
2019-03-09T03:25:32.709Z,8.30
2019-03-09T03:28:02.505Z,8.30
2019-03-09T03:30:32.266Z,8.30
2019-03-09T03:33:01.986Z,8.30
2019-03-09T03:35:31.729Z,8.20
2019-03-09T03:38:01.399Z,8.20
2019-03-09T03:40:31.082Z,8.20
2019-03-09T03:43:00.856Z,8.20
2019-03-09T03:45:30.547Z,8.20
2019-03-09T03:48:00.202Z,8.10
2019-03-09T03:50:29.964Z,8.10
2019-03-09T03:52:59.637Z,8.20
2019-03-09T03:55:29.379Z,8.20
2019-03-09T03:57:59.227Z,8.10
2019-03-09T04:00:28.919Z,8.10
2019-03-09T04:02:58.746Z,8.10
2019-03-09T04:05:28.579Z,8.10
2019-03-09T04:07:58.320Z,8.10
2019-03-09T04:10:28.147Z,8.10
2019-03-09T04:12:58.492Z,8.10
2019-03-09T04:15:28.248Z,8.10
2019-03-09T04:17:57.935Z,8.10
2019-03-09T04:20:27.782Z,8.00
2019-03-09T04:22:57.581Z,8.00
2019-03-09T04:25:27.337Z,8.00
2019-03-09T04:27:57.194Z,8.00
2019-03-09T04:30:27.086Z,8.00
2019-03-09T04:32:56.990Z,8.00
2019-03-09T04:35:26.919Z,8.10
2019-03-09T04:37:56.605Z,8.10
2019-03-09T04:40:26.361Z,8.20
2019-03-09T04:42:56.116Z,8.20
2019-03-09T04:45:25.789Z,8.30
2019-03-09T04:47:55.549Z,8.30
2019-03-09T04:50:25.280Z,8.30
2019-03-09T04:52:55.205Z,8.30
2019-03-09T04:55:24.966Z,8.40
2019-03-09T04:57:54.642Z,8.40
2019-03-09T05:00:24.474Z,8.40
2019-03-09T05:02:54.268Z,8.40
2019-03-09T05:05:23.942Z,8.40
2019-03-09T05:08:06.522Z,8.40
2019-03-09T05:10:52.398Z,8.50
2019-03-09T05:13:45.883Z,8.50
2019-03-09T05:16:15.654Z,8.50
2019-03-09T05:18:45.407Z,8.60
2019-03-09T05:21:15.178Z,8.60
2019-03-09T05:23:44.925Z,8.60
2019-03-09T05:26:14.623Z,8.60
2019-03-09T05:28:44.510Z,8.60
2019-03-09T05:31:14.202Z,8.70
2019-03-09T05:33:43.918Z,8.70
2019-03-09T05:36:13.611Z,8.70
2019-03-09T05:38:43.383Z,8.70
2019-03-09T05:41:13.159Z,8.60
2019-03-09T05:43:42.836Z,8.60
2019-03-09T05:46:12.613Z,8.60
2019-03-09T05:48:42.391Z,8.60
2019-03-09T05:51:12.066Z,8.60
2019-03-09T05:53:41.860Z,8.60
2019-03-09T05:56:11.558Z,8.60
2019-03-09T05:58:41.272Z,8.60
2019-03-09T06:01:10.958Z,8.60
2019-03-09T06:03:40.639Z,8.60
2019-03-09T06:06:15.347Z,8.50
2019-03-09T06:08:45.819Z,8.50
2019-03-09T06:11:16.592Z,8.60
2019-03-09T06:14:05.558Z,8.60
2019-03-09T06:16:35.258Z,8.60
2019-03-09T06:19:05.014Z,8.60
2019-03-09T06:21:34.706Z,8.60
2019-03-09T06:24:04.539Z,8.60
2019-03-09T06:26:34.214Z,8.60
2019-03-09T06:29:04.201Z,8.60
2019-03-09T06:31:34.000Z,8.60
2019-03-09T06:34:03.702Z,8.60
2019-03-09T06:36:59.502Z,8.60
2019-03-09T06:39:40.346Z,8.70
2019-03-09T06:42:45.823Z,8.70
2019-03-09T06:45:19.370Z,8.70
2019-03-09T06:47:49.135Z,8.70
2019-03-09T06:50:19.914Z,8.70
2019-03-09T06:52:49.707Z,8.70
2019-03-09T06:55:19.663Z,8.60
2019-03-09T06:57:49.411Z,8.60
2019-03-09T07:00:29.018Z,8.70
2019-03-09T07:02:58.702Z,8.70
2019-03-09T07:05:28.506Z,8.70
2019-03-09T07:07:58.334Z,8.70
2019-03-09T07:10:28.082Z,8.70
2019-03-09T07:12:57.839Z,8.70
2019-03-09T07:15:29.763Z,8.70
2019-03-09T07:18:05.197Z,8.80
2019-03-09T07:20:35.034Z,8.80
2019-03-09T07:23:04.887Z,8.80
2019-03-09T07:25:34.559Z,8.80
2019-03-09T07:28:11.772Z,8.80
2019-03-09T07:30:42.594Z,8.80
2019-03-09T07:33:12.522Z,8.80
2019-03-09T07:35:42.271Z,8.90
2019-03-09T07:38:11.975Z,8.90
2019-03-09T07:40:42.634Z,8.90
2019-03-09T07:43:12.347Z,8.90
2019-03-09T07:45:42.023Z,9.00
2019-03-09T07:48:11.870Z,9.00
2019-03-09T07:50:41.545Z,9.00
2019-03-09T07:53:11.309Z,9.00
2019-03-09T07:55:40.995Z,9.10
2019-03-09T07:58:10.680Z,9.10
2019-03-09T08:00:40.430Z,9.20
2019-03-09T08:03:10.310Z,9.10
2019-03-09T08:05:40.062Z,9.20
2019-03-09T08:08:09.756Z,9.20
2019-03-09T08:10:39.530Z,9.20
2019-03-09T08:13:09.306Z,9.20
2019-03-09T08:15:39.158Z,9.20
2019-03-09T08:18:08.878Z,9.30
2019-03-09T08:20:38.613Z,9.30
2019-03-09T08:23:08.425Z,9.40
2019-03-09T08:25:38.186Z,9.40
2019-03-09T08:28:07.975Z,9.40
2019-03-09T08:30:38.011Z,9.40
2019-03-09T08:33:07.860Z,9.40
2019-03-09T08:35:37.547Z,9.50
2019-03-09T08:38:07.325Z,9.50
2019-03-09T08:40:37.051Z,9.50
2019-03-09T08:43:06.754Z,9.60
2019-03-09T08:45:36.589Z,9.50
2019-03-09T08:48:09.235Z,9.50
2019-03-09T08:50:38.982Z,9.50
2019-03-09T08:53:08.925Z,9.50
2019-03-09T08:55:38.676Z,9.50
2019-03-09T08:58:09.542Z,9.60
2019-03-09T09:00:39.291Z,9.60
2019-03-09T09:03:08.969Z,9.60
2019-03-09T09:05:39.647Z,9.60
2019-03-09T09:08:09.785Z,9.50
2019-03-09T09:10:39.574Z,9.50
2019-03-09T09:13:09.462Z,9.50
2019-03-09T09:15:39.154Z,9.50
2019-03-09T09:18:08.987Z,9.60
2019-03-09T09:20:38.680Z,9.50
2019-03-09T09:23:09.350Z,9.50
2019-03-09T09:25:39.176Z,9.50
2019-03-09T09:28:08.870Z,9.60
2019-03-09T09:30:38.563Z,9.70
2019-03-09T09:33:08.407Z,9.70
2019-03-09T09:35:38.306Z,9.80
2019-03-09T09:38:08.060Z,10.00
2019-03-09T09:40:37.810Z,10.10
2019-03-09T09:43:07.735Z,10.10
2019-03-09T09:45:37.585Z,10.10
2019-03-09T09:48:07.345Z,10.10
2019-03-09T09:50:37.106Z,10.30
2019-03-09T09:53:06.950Z,10.40
2019-03-09T09:55:36.810Z,10.40
2019-03-09T09:58:06.549Z,10.30
2019-03-09T10:00:36.343Z,10.30
2019-03-09T10:03:06.171Z,10.40
2019-03-09T10:05:35.859Z,10.40
2019-03-09T10:08:05.691Z,10.20
2019-03-09T10:10:35.464Z,10.40
2019-03-09T10:13:05.225Z,10.30
2019-03-09T10:15:35.098Z,10.20
2019-03-09T10:18:04.918Z,10.10
2019-03-09T10:20:35.613Z,10.20
2019-03-09T10:23:05.425Z,10.10
2019-03-09T10:25:35.344Z,10.20
2019-03-09T10:28:06.098Z,10.10
2019-03-09T10:30:35.856Z,10.20
2019-03-09T10:33:05.619Z,10.30
2019-03-09T10:35:35.297Z,10.40
2019-03-09T10:38:05.158Z,10.50
2019-03-09T10:40:35.962Z,10.60
2019-03-09T10:43:05.810Z,10.70
2019-03-09T10:45:35.494Z,10.80
2019-03-09T10:48:05.430Z,10.80
2019-03-09T10:50:35.493Z,10.80
2019-03-09T10:53:05.251Z,10.80
2019-03-09T10:55:35.045Z,11.00
2019-03-09T10:58:04.929Z,10.80
2019-03-09T11:00:34.947Z,10.80
2019-03-09T11:03:04.776Z,10.90
2019-03-09T11:05:34.606Z,11.00
2019-03-09T11:08:04.934Z,11.10
2019-03-09T11:10:34.703Z,11.00
2019-03-09T11:13:04.538Z,10.90
2019-03-09T11:15:34.662Z,10.80
2019-03-09T11:18:04.497Z,10.80
2019-03-09T11:20:34.274Z,10.80
2019-03-09T11:23:04.109Z,11.00
2019-03-09T11:25:33.793Z,11.00
2019-03-09T11:28:08.474Z,11.20
2019-03-09T11:30:38.287Z,11.40
2019-03-09T11:33:08.089Z,11.40
2019-03-09T11:35:37.939Z,11.40
2019-03-09T11:38:07.610Z,11.40
2019-03-09T11:40:37.378Z,11.50
2019-03-09T11:43:07.225Z,11.30
2019-03-09T11:45:37.023Z,11.10
2019-03-09T11:48:06.791Z,10.90
2019-03-09T11:50:36.632Z,10.80
2019-03-09T11:53:06.495Z,10.60
2019-03-09T11:55:36.184Z,10.50
2019-03-09T11:58:06.259Z,10.40
2019-03-09T12:00:37.149Z,10.30
2019-03-09T12:03:09.218Z,10.30
2019-03-09T12:05:38.975Z,10.40
2019-03-09T12:08:08.809Z,10.30
2019-03-09T12:10:41.685Z,10.20
2019-03-09T12:13:13.242Z,10.30
2019-03-09T12:15:42.917Z,10.30
2019-03-09T12:18:12.643Z,10.30
2019-03-09T12:20:42.462Z,10.20
2019-03-09T12:23:16.830Z,10.10
2019-03-09T12:25:46.528Z,10.00
2019-03-09T12:28:16.326Z,10.00
2019-03-09T12:30:46.346Z,9.90
2019-03-09T12:33:16.175Z,10.00
2019-03-09T12:35:45.879Z,10.00
2019-03-09T12:38:15.560Z,10.00
2019-03-09T12:40:45.322Z,10.00
2019-03-09T12:43:15.146Z,10.10
2019-03-09T12:45:45.004Z,10.10
2019-03-09T12:48:14.685Z,10.20
2019-03-09T12:50:44.387Z,10.20
2019-03-09T12:53:14.349Z,10.30
2019-03-09T12:55:44.191Z,10.40
2019-03-09T12:58:16.964Z,10.50
2019-03-09T13:00:46.662Z,10.50
2019-03-09T13:03:16.490Z,10.30
2019-03-09T13:05:46.817Z,10.20
2019-03-09T13:08:16.806Z,10.10
2019-03-09T13:10:46.570Z,10.10
2019-03-09T13:13:16.254Z,10.10
2019-03-09T13:15:46.107Z,10.10
2019-03-09T13:18:15.791Z,10.00
2019-03-09T13:20:45.490Z,10.00
2019-03-09T13:23:15.198Z,9.90
2019-03-09T13:25:44.942Z,9.60
2019-03-09T13:28:14.634Z,9.50
2019-03-09T13:30:44.359Z,9.30
2019-03-09T13:33:14.160Z,8.80
2019-03-09T13:35:43.822Z,8.30
2019-03-09T13:38:13.670Z,8.10
2019-03-09T13:40:43.415Z,7.90
2019-03-09T13:43:14.166Z,7.80
2019-03-09T13:45:43.890Z,7.50
2019-03-09T13:48:13.646Z,7.30
2019-03-09T13:50:43.371Z,7.00
2019-03-09T13:53:13.090Z,6.70
2019-03-09T13:55:42.790Z,6.60
2019-03-09T13:58:12.654Z,6.70
2019-03-09T14:00:42.420Z,6.90
2019-03-09T14:03:12.113Z,7.10
2019-03-09T14:05:41.946Z,7.30
2019-03-09T14:08:12.836Z,7.40
2019-03-09T14:10:42.655Z,7.30
2019-03-09T14:13:12.407Z,7.00
2019-03-09T14:15:42.103Z,6.80
2019-03-09T14:18:12.003Z,6.60
2019-03-09T14:20:41.678Z,6.60
2019-03-09T14:23:11.399Z,6.60
2019-03-09T14:25:41.125Z,6.70
2019-03-09T14:28:10.826Z,6.80
2019-03-09T14:30:40.576Z,7.00
2019-03-09T14:33:10.335Z,7.20
2019-03-09T14:35:40.116Z,7.40
2019-03-09T14:38:09.810Z,7.70
2019-03-09T14:40:39.551Z,7.80
2019-03-09T14:43:09.240Z,8.00
2019-03-09T14:45:41.854Z,8.10
2019-03-09T14:48:11.611Z,8.20
2019-03-09T14:50:41.346Z,8.30
2019-03-09T14:53:11.014Z,8.40
2019-03-09T14:55:40.777Z,8.60
2019-03-09T14:58:10.707Z,9.00
2019-03-09T15:00:40.650Z,9.10
2019-03-09T15:03:10.328Z,9.30
2019-03-09T15:05:40.090Z,9.40
2019-03-09T15:08:09.851Z,9.50
2019-03-09T15:10:39.664Z,9.40
2019-03-09T15:13:09.435Z,9.30
2019-03-09T15:15:39.114Z,9.30
2019-03-09T15:18:08.878Z,9.30
2019-03-09T15:20:38.646Z,9.30
2019-03-09T15:23:08.323Z,9.30
2019-03-09T15:25:38.266Z,9.10
2019-03-09T15:28:08.026Z,9.10
2019-03-09T15:30:37.954Z,9.10
2019-03-09T15:33:07.645Z,9.10
2019-03-09T15:35:37.318Z,9.10
2019-03-09T15:38:07.081Z,9.10
2019-03-09T15:40:36.768Z,9.10
2019-03-09T15:43:06.933Z,9.00
2019-03-09T15:45:36.614Z,9.00
2019-03-09T15:48:06.429Z,9.00
2019-03-09T15:50:36.182Z,9.00
2019-03-09T15:53:06.942Z,9.00
2019-03-09T15:55:36.771Z,9.00
2019-03-09T15:58:06.774Z,8.90
2019-03-09T16:00:36.605Z,9.00
2019-03-09T16:03:06.374Z,9.00
2019-03-09T16:05:36.154Z,9.00
2019-03-09T16:08:06.017Z,9.00
2019-03-09T16:10:35.698Z,9.20
2019-03-09T16:13:05.455Z,9.60
2019-03-09T16:15:35.157Z,9.70
2019-03-09T16:18:04.975Z,9.60
2019-03-09T16:20:35.626Z,9.70
2019-03-09T16:23:05.462Z,9.60
2019-03-09T16:25:35.135Z,9.60
2019-03-09T16:28:08.098Z,9.50
2019-03-09T16:30:38.847Z,9.30
2019-03-09T16:33:08.522Z,9.00
2019-03-09T16:35:38.210Z,8.90
2019-03-09T16:38:07.954Z,8.80
2019-03-09T16:40:40.711Z,8.70
2019-03-09T16:43:09.195Z,8.60
2019-03-09T16:45:38.885Z,8.50
2019-03-09T16:48:08.650Z,8.40
2019-03-09T16:50:40.117Z,8.20
2019-03-09T16:53:09.890Z,8.20
2019-03-09T16:55:39.650Z,8.10
2019-03-09T16:58:09.479Z,8.10
2019-03-09T17:00:39.231Z,8.00
2019-03-09T17:03:08.915Z,8.00
2019-03-09T17:05:38.590Z,8.00
2019-03-09T17:08:09.487Z,7.90
2019-03-09T17:10:39.242Z,7.90
2019-03-09T17:13:10.006Z,7.90
2019-03-09T17:15:39.697Z,7.90
2019-03-09T17:18:09.458Z,7.80
2019-03-09T17:20:39.141Z,7.80
2019-03-09T17:23:10.354Z,7.70
2019-03-09T17:25:40.143Z,7.70
2019-03-09T17:28:09.827Z,7.70
2019-03-09T17:30:39.539Z,7.60
2019-03-09T17:33:09.231Z,7.60
2019-03-09T17:35:38.979Z,7.60
2019-03-09T17:38:08.711Z,7.60
2019-03-09T17:40:38.380Z,7.60
2019-03-09T17:43:08.063Z,7.60
2019-03-09T17:45:37.816Z,7.60
2019-03-09T17:48:07.585Z,7.60
2019-03-09T17:50:37.370Z,7.60
2019-03-09T17:53:07.081Z,7.60
2019-03-09T17:55:36.751Z,7.50
2019-03-09T17:58:06.513Z,7.50
2019-03-09T18:00:42.776Z,7.50
2019-03-09T18:03:11.215Z,7.50
2019-03-09T18:05:41.042Z,7.60
2019-03-09T18:08:10.812Z,7.60
2019-03-09T18:10:53.495Z,7.60
2019-03-09T18:13:23.246Z,7.70
2019-03-09T18:15:53.006Z,7.70
2019-03-09T18:18:22.687Z,7.70
2019-03-09T18:20:52.378Z,7.70
2019-03-09T18:23:22.225Z,7.70
2019-03-09T18:25:51.919Z,7.70
2019-03-09T18:28:22.582Z,7.70
2019-03-09T18:30:52.262Z,7.70
2019-03-09T18:33:21.949Z,7.70
2019-03-09T18:35:51.635Z,7.70
2019-03-09T18:38:21.380Z,7.70
2019-03-09T18:40:51.067Z,7.80
2019-03-09T18:43:20.734Z,7.80
2019-03-09T18:45:50.482Z,7.80
2019-03-09T18:48:20.226Z,7.80
2019-03-09T18:50:49.909Z,7.80
2019-03-09T18:53:19.653Z,7.90
2019-03-09T18:55:58.825Z,7.90
2019-03-09T18:58:20.708Z,7.90
2019-03-09T19:00:50.458Z,7.90
2019-03-09T19:03:20.218Z,8.00
2019-03-09T19:05:49.894Z,8.10
2019-03-09T19:08:19.594Z,8.10
2019-03-09T19:10:49.278Z,8.20
2019-03-09T19:13:18.982Z,8.20
2019-03-09T19:15:48.676Z,8.20
2019-03-09T19:18:18.498Z,8.10
2019-03-09T19:20:48.260Z,8.00
2019-03-09T19:23:18.052Z,7.90
2019-03-09T19:25:47.750Z,7.80
2019-03-09T19:28:17.498Z,7.70
2019-03-09T19:30:47.258Z,7.60
2019-03-09T19:33:16.930Z,7.60
2019-03-09T19:35:47.881Z,7.60
2019-03-09T19:38:17.701Z,7.60
2019-03-09T19:40:47.395Z,7.60
2019-03-09T19:43:17.184Z,7.60
2019-03-09T19:45:46.910Z,7.70
2019-03-09T19:48:16.591Z,7.80
2019-03-09T19:50:46.280Z,7.80
2019-03-09T19:53:15.954Z,7.80
2019-03-09T19:55:45.728Z,7.90
2019-03-09T19:58:15.403Z,7.90
2019-03-09T20:00:45.082Z,7.90
2019-03-09T20:03:14.770Z,7.90
2019-03-09T20:05:46.936Z,7.90
2019-03-09T20:08:16.615Z,8.00
2019-03-09T20:10:46.362Z,8.00
2019-03-09T20:13:16.163Z,8.00
2019-03-09T20:15:46.045Z,8.00
2019-03-09T20:18:16.774Z,8.00
2019-03-09T20:20:46.636Z,8.00
2019-03-09T20:23:17.270Z,7.90
2019-03-09T20:25:48.283Z,7.90
2019-03-09T20:28:18.034Z,8.00
2019-03-09T20:30:47.722Z,8.10
2019-03-09T20:33:17.493Z,8.00
2019-03-09T20:35:47.224Z,8.00
2019-03-09T20:38:16.898Z,8.00
2019-03-09T20:40:46.600Z,8.10
2019-03-09T20:43:16.272Z,8.10
2019-03-09T20:45:45.958Z,8.10
2019-03-09T20:48:15.630Z,8.10
2019-03-09T20:50:45.421Z,8.10
2019-03-09T20:53:15.370Z,8.00
2019-03-09T20:55:45.254Z,8.00
2019-03-09T20:58:15.051Z,7.90
2019-03-09T21:00:44.726Z,7.90
2019-03-09T21:03:14.394Z,7.90
2019-03-09T21:05:44.112Z,7.90
2019-03-09T21:08:13.841Z,8.00
2019-03-09T21:10:43.536Z,8.00
2019-03-09T21:13:13.283Z,8.10
2019-03-09T21:15:43.054Z,8.20
2019-03-09T21:18:12.733Z,8.20
2019-03-09T21:20:42.566Z,8.20
2019-03-09T21:23:12.263Z,8.20
2019-03-09T21:25:42.042Z,8.20
2019-03-09T21:28:11.746Z,8.20
2019-03-09T21:30:43.003Z,8.20
2019-03-09T21:33:12.663Z,8.10
2019-03-09T21:35:42.403Z,8.20
2019-03-09T21:38:12.154Z,8.20
2019-03-09T21:40:41.975Z,8.20
2019-03-09T21:43:11.683Z,8.20
2019-03-09T21:45:41.499Z,8.20
2019-03-09T21:48:11.435Z,8.20
2019-03-09T21:50:41.211Z,8.20
2019-03-09T21:53:10.978Z,8.20
2019-03-09T21:55:40.661Z,8.10
2019-03-09T21:58:10.408Z,8.10
2019-03-09T22:00:40.089Z,8.10
2019-03-09T22:03:09.830Z,8.10
2019-03-09T22:05:39.517Z,8.10
2019-03-09T22:08:09.194Z,8.10
2019-03-09T22:10:38.863Z,8.10
2019-03-09T22:13:08.646Z,8.00
2019-03-09T22:15:38.321Z,8.00
2019-03-09T22:18:13.908Z,8.00
2019-03-09T22:20:50.449Z,8.00
2019-03-09T22:23:26.990Z,8.00
2019-03-09T22:26:02.040Z,8.00
2019-03-09T22:28:33.570Z,8.00
2019-03-09T22:31:03.435Z,8.00
2019-03-09T22:33:33.216Z,8.00
2019-03-09T22:36:02.894Z,8.00
2019-03-09T22:38:32.578Z,8.00
2019-03-09T22:41:02.327Z,7.90
2019-03-09T22:43:32.034Z,7.90
2019-03-09T22:46:01.794Z,7.90
2019-03-09T22:48:31.562Z,7.90
2019-03-09T22:51:01.242Z,7.90
2019-03-09T22:53:30.991Z,7.90
2019-03-09T22:56:00.679Z,7.90
2019-03-09T22:58:30.351Z,7.80
2019-03-09T23:01:00.371Z,7.80
2019-03-09T23:03:30.182Z,7.70
2019-03-09T23:05:59.954Z,7.70
2019-03-09T23:08:29.633Z,7.60
2019-03-09T23:10:59.390Z,7.50
2019-03-09T23:13:29.078Z,7.50
2019-03-09T23:15:58.833Z,7.40
2019-03-09T23:18:28.594Z,7.40
2019-03-09T23:20:58.271Z,7.40
2019-03-09T23:23:28.393Z,7.50
2019-03-09T23:25:58.084Z,7.50
2019-03-09T23:28:29.333Z,7.60
2019-03-09T23:30:59.006Z,7.70
2019-03-09T23:33:28.781Z,7.70
2019-03-09T23:35:58.525Z,7.80
2019-03-09T23:38:28.290Z,7.80
2019-03-09T23:40:58.030Z,7.80
2019-03-09T23:43:27.786Z,7.80
2019-03-09T23:45:57.538Z,7.90
2019-03-09T23:48:27.362Z,7.90
2019-03-09T23:50:57.101Z,7.90
2019-03-09T23:53:26.922Z,7.90
2019-03-09T23:55:56.659Z,7.80
2019-03-09T23:58:26.486Z,7.80
